sensor_id;sensor_type;location;lat;lon;timestamp;temperature;humidity
19652;DHT22;9974;52.146;14.668;2023-07-29T00:00:34;17.80;99.90
19652;DHT22;9974;52.146;14.668;2023-07-29T00:02:59;17.50;99.90
19652;DHT22;9974;52.146;14.668;2023-07-29T00:05:25;17.30;99.90
19652;DHT22;9974;52.146;14.668;2023-07-29T00:07:52;18.00;99.90
19652;DHT22;9974;52.146;14.668;2023-07-29T00:10:17;17.70;99.90
19652;DHT22;9974;52.146;14.668;2023-07-29T00:12:43;18.00;99.90
19652;DHT22;9974;52.146;14.668;2023-07-29T00:15:09;17.40;99.90
19652;DHT22;9974;52.146;14.668;2023-07-29T00:17:35;17.50;99.90
19652;DHT22;9974;52.146;14.668;2023-07-29T00:22:28;17.80;99.90
19652;DHT22;9974;52.146;14.668;2023-07-29T00:27:21;18.20;99.90
19652;DHT22;9974;52.146;14.668;2023-07-29T00:29:46;17.90;99.90
19652;DHT22;9974;52.146;14.668;2023-07-29T00:32:12;18.00;99.90
19652;DHT22;9974;52.146;14.668;2023-07-29T00:37:04;17.80;99.90
19652;DHT22;9974;52.146;14.668;2023-07-29T00:39:34;17.80;99.90
19652;DHT22;9974;52.146;14.668;2023-07-29T00:41:59;17.90;99.90
19652;DHT22;9974;52.146;14.668;2023-07-29T00:44:25;18.20;99.90
19652;DHT22;9974;52.146;14.668;2023-07-29T00:46:54;18.30;99.90
19652;DHT22;9974;52.146;14.668;2023-07-29T00:49:20;17.90;99.90
19652;DHT22;9974;52.146;14.668;2023-07-29T00:51:46;17.80;99.90
19652;DHT22;9974;52.146;14.668;2023-07-29T00:54:13;18.20;99.90
19652;DHT22;9974;52.146;14.668;2023-07-29T00:56:39;17.60;99.90
19652;DHT22;9974;52.146;14.668;2023-07-29T00:59:05;17.70;99.90
19652;DHT22;9974;52.146;14.668;2023-07-29T01:01:31;17.60;99.90
19652;DHT22;9974;52.146;14.668;2023-07-29T01:03:57;18.30;99.90
19652;DHT22;9974;52.146;14.668;2023-07-29T01:06:46;17.90;99.90
19652;DHT22;9974;52.146;14.668;2023-07-29T01:09:25;17.80;99.90
19652;DHT22;9974;52.146;14.668;2023-07-29T01:12:35;18.10;99.90
19652;DHT22;9974;52.146;14.668;2023-07-29T01:15:22;18.00;99.90
19652;DHT22;9974;52.146;14.668;2023-07-29T01:20:42;17.20;99.90
19652;DHT22;9974;52.146;14.668;2023-07-29T01:23:09;17.20;99.90
19652;DHT22;9974;52.146;14.668;2023-07-29T01:25:35;17.50;99.90
19652;DHT22;9974;52.146;14.668;2023-07-29T01:28:00;18.00;99.90
19652;DHT22;9974;52.146;14.668;2023-07-29T01:30:31;17.40;99.90
19652;DHT22;9974;52.146;14.668;2023-07-29T01:33:07;17.00;99.90
19652;DHT22;9974;52.146;14.668;2023-07-29T01:35:45;17.70;99.90
19652;DHT22;9974;52.146;14.668;2023-07-29T01:38:32;17.40;99.90
19652;DHT22;9974;52.146;14.668;2023-07-29T01:41:04;16.60;99.90
19652;DHT22;9974;52.146;14.668;2023-07-29T01:43:32;16.70;99.90
19652;DHT22;9974;52.146;14.668;2023-07-29T01:45:58;18.10;99.90
19652;DHT22;9974;52.146;14.668;2023-07-29T01:48:25;17.20;99.90
19652;DHT22;9974;52.146;14.668;2023-07-29T01:50:52;17.20;99.90
19652;DHT22;9974;52.146;14.668;2023-07-29T01:53:18;16.40;99.90
19652;DHT22;9974;52.146;14.668;2023-07-29T01:55:45;17.20;99.90
19652;DHT22;9974;52.146;14.668;2023-07-29T01:58:11;17.10;99.90
19652;DHT22;9974;52.146;14.668;2023-07-29T02:03:03;16.60;99.90
19652;DHT22;9974;52.146;14.668;2023-07-29T02:05:28;17.30;99.90
19652;DHT22;9974;52.146;14.668;2023-07-29T02:10:21;17.30;99.90
19652;DHT22;9974;52.146;14.668;2023-07-29T02:12:46;17.40;99.90
19652;DHT22;9974;52.146;14.668;2023-07-29T02:15:12;16.50;99.90
19652;DHT22;9974;52.146;14.668;2023-07-29T02:20:06;17.20;99.90
19652;DHT22;9974;52.146;14.668;2023-07-29T02:22:32;16.70;99.90
19652;DHT22;9974;52.146;14.668;2023-07-29T02:24:58;17.50;99.90
19652;DHT22;9974;52.146;14.668;2023-07-29T02:32:18;16.80;99.90
19652;DHT22;9974;52.146;14.668;2023-07-29T02:34:44;16.80;99.90
19652;DHT22;9974;52.146;14.668;2023-07-29T02:37:10;16.70;99.90
19652;DHT22;9974;52.146;14.668;2023-07-29T02:39:36;17.40;99.90
19652;DHT22;9974;52.146;14.668;2023-07-29T02:42:02;16.90;99.90
19652;DHT22;9974;52.146;14.668;2023-07-29T02:44:28;16.50;99.90
19652;DHT22;9974;52.146;14.668;2023-07-29T02:46:53;16.90;99.90
19652;DHT22;9974;52.146;14.668;2023-07-29T02:49:21;16.80;99.90
19652;DHT22;9974;52.146;14.668;2023-07-29T02:54:13;17.00;99.90
19652;DHT22;9974;52.146;14.668;2023-07-29T02:56:38;16.50;99.90
19652;DHT22;9974;52.146;14.668;2023-07-29T02:59:04;16.90;99.90
19652;DHT22;9974;52.146;14.668;2023-07-29T03:01:30;17.30;99.90
19652;DHT22;9974;52.146;14.668;2023-07-29T03:03:56;17.30;99.90
19652;DHT22;9974;52.146;14.668;2023-07-29T03:06:21;17.20;99.90
19652;DHT22;9974;52.146;14.668;2023-07-29T03:08:47;17.30;99.90
19652;DHT22;9974;52.146;14.668;2023-07-29T03:11:14;16.80;99.90
19652;DHT22;9974;52.146;14.668;2023-07-29T03:13:40;16.60;99.90
19652;DHT22;9974;52.146;14.668;2023-07-29T03:18:40;17.40;99.90
19652;DHT22;9974;52.146;14.668;2023-07-29T03:21:07;16.90;99.90
19652;DHT22;9974;52.146;14.668;2023-07-29T03:23:33;16.90;99.90
19652;DHT22;9974;52.146;14.668;2023-07-29T03:26:00;16.80;99.90
19652;DHT22;9974;52.146;14.668;2023-07-29T03:28:32;16.40;99.90
19652;DHT22;9974;52.146;14.668;2023-07-29T03:30:59;16.70;99.90
19652;DHT22;9974;52.146;14.668;2023-07-29T03:33:25;16.30;99.90
19652;DHT22;9974;52.146;14.668;2023-07-29T03:35:52;16.40;99.90
19652;DHT22;9974;52.146;14.668;2023-07-29T03:38:17;16.70;99.90
19652;DHT22;9974;52.146;14.668;2023-07-29T03:43:09;15.90;99.90
19652;DHT22;9974;52.146;14.668;2023-07-29T03:48:02;16.40;99.90
19652;DHT22;9974;52.146;14.668;2023-07-29T03:50:28;15.50;99.90
19652;DHT22;9974;52.146;14.668;2023-07-29T03:52:55;15.20;99.90
19652;DHT22;9974;52.146;14.668;2023-07-29T03:55:21;15.70;99.90
19652;DHT22;9974;52.146;14.668;2023-07-29T03:57:46;15.80;99.90
19652;DHT22;9974;52.146;14.668;2023-07-29T04:00:12;16.00;99.90
19652;DHT22;9974;52.146;14.668;2023-07-29T04:02:38;16.10;99.90
19652;DHT22;9974;52.146;14.668;2023-07-29T04:05:05;15.40;99.90
19652;DHT22;9974;52.146;14.668;2023-07-29T04:10:00;15.60;99.90
19652;DHT22;9974;52.146;14.668;2023-07-29T04:12:26;15.40;99.90
19652;DHT22;9974;52.146;14.668;2023-07-29T04:14:51;16.00;99.90
19652;DHT22;9974;52.146;14.668;2023-07-29T04:17:17;16.00;99.90
19652;DHT22;9974;52.146;14.668;2023-07-29T04:19:43;15.50;99.90
19652;DHT22;9974;52.146;14.668;2023-07-29T04:22:09;15.60;99.90
19652;DHT22;9974;52.146;14.668;2023-07-29T04:24:34;16.50;99.90
19652;DHT22;9974;52.146;14.668;2023-07-29T04:29:26;15.90;99.90
19652;DHT22;9974;52.146;14.668;2023-07-29T04:31:52;15.80;99.90
19652;DHT22;9974;52.146;14.668;2023-07-29T04:34:18;16.30;99.90
19652;DHT22;9974;52.146;14.668;2023-07-29T04:36:45;16.50;99.90
19652;DHT22;9974;52.146;14.668;2023-07-29T04:39:12;16.50;99.90
19652;DHT22;9974;52.146;14.668;2023-07-29T04:41:37;15.90;99.90
19652;DHT22;9974;52.146;14.668;2023-07-29T04:44:03;16.40;99.90
19652;DHT22;9974;52.146;14.668;2023-07-29T04:46:29;16.10;99.90
19652;DHT22;9974;52.146;14.668;2023-07-29T04:48:54;16.40;99.90
19652;DHT22;9974;52.146;14.668;2023-07-29T04:56:12;16.60;99.90
19652;DHT22;9974;52.146;14.668;2023-07-29T05:01:04;16.60;99.90
19652;DHT22;9974;52.146;14.668;2023-07-29T05:03:31;16.30;99.90
19652;DHT22;9974;52.146;14.668;2023-07-29T05:05:58;16.50;99.90
19652;DHT22;9974;52.146;14.668;2023-07-29T05:08:26;16.50;99.90
19652;DHT22;9974;52.146;14.668;2023-07-29T05:10:52;16.50;99.90
19652;DHT22;9974;52.146;14.668;2023-07-29T05:13:18;16.50;99.90
19652;DHT22;9974;52.146;14.668;2023-07-29T05:15:44;16.80;99.90
19652;DHT22;9974;52.146;14.668;2023-07-29T05:18:10;17.40;99.90
19652;DHT22;9974;52.146;14.668;2023-07-29T05:23:03;17.10;99.90
19652;DHT22;9974;52.146;14.668;2023-07-29T05:25:29;17.00;99.90
19652;DHT22;9974;52.146;14.668;2023-07-29T05:27:55;17.70;99.90
19652;DHT22;9974;52.146;14.668;2023-07-29T05:30:20;17.00;99.90
19652;DHT22;9974;52.146;14.668;2023-07-29T05:32:46;17.60;99.90
19652;DHT22;9974;52.146;14.668;2023-07-29T05:35:12;18.00;99.90
19652;DHT22;9974;52.146;14.668;2023-07-29T05:37:38;17.50;99.90
19652;DHT22;9974;52.146;14.668;2023-07-29T05:40:05;17.70;99.90
19652;DHT22;9974;52.146;14.668;2023-07-29T05:42:32;17.90;99.90
19652;DHT22;9974;52.146;14.668;2023-07-29T05:44:58;18.30;99.90
19652;DHT22;9974;52.146;14.668;2023-07-29T05:47:24;18.00;99.90
19652;DHT22;9974;52.146;14.668;2023-07-29T05:49:49;18.00;99.90
19652;DHT22;9974;52.146;14.668;2023-07-29T05:52:15;18.90;99.90
19652;DHT22;9974;52.146;14.668;2023-07-29T05:54:41;18.80;99.90
19652;DHT22;9974;52.146;14.668;2023-07-29T05:57:09;18.80;99.90
19652;DHT22;9974;52.146;14.668;2023-07-29T05:59:35;18.70;99.90
19652;DHT22;9974;52.146;14.668;2023-07-29T06:02:01;19.00;99.90
19652;DHT22;9974;52.146;14.668;2023-07-29T06:06:52;19.50;99.90
19652;DHT22;9974;52.146;14.668;2023-07-29T06:11:44;19.40;99.90
19652;DHT22;9974;52.146;14.668;2023-07-29T06:14:10;19.30;99.90
19652;DHT22;9974;52.146;14.668;2023-07-29T06:16:35;19.20;99.90
19652;DHT22;9974;52.146;14.668;2023-07-29T06:19:01;20.10;99.90
19652;DHT22;9974;52.146;14.668;2023-07-29T06:23:53;20.30;99.90
19652;DHT22;9974;52.146;14.668;2023-07-29T06:28:44;20.40;99.90
19652;DHT22;9974;52.146;14.668;2023-07-29T06:31:10;20.60;99.90
19652;DHT22;9974;52.146;14.668;2023-07-29T06:33:36;20.80;99.90
19652;DHT22;9974;52.146;14.668;2023-07-29T06:36:01;20.80;99.90
19652;DHT22;9974;52.146;14.668;2023-07-29T06:38:27;21.30;99.90
19652;DHT22;9974;52.146;14.668;2023-07-29T06:40:53;21.60;99.90
19652;DHT22;9974;52.146;14.668;2023-07-29T06:45:44;21.60;99.90
19652;DHT22;9974;52.146;14.668;2023-07-29T06:50:36;21.60;99.90
19652;DHT22;9974;52.146;14.668;2023-07-29T06:53:03;21.40;99.90
19652;DHT22;9974;52.146;14.668;2023-07-29T06:55:28;21.10;99.90
19652;DHT22;9974;52.146;14.668;2023-07-29T06:57:54;21.20;99.90
19652;DHT22;9974;52.146;14.668;2023-07-29T07:00:20;22.20;99.90
19652;DHT22;9974;52.146;14.668;2023-07-29T07:02:45;21.60;99.90
19652;DHT22;9974;52.146;14.668;2023-07-29T07:05:11;21.50;99.90
19652;DHT22;9974;52.146;14.668;2023-07-29T07:07:37;21.50;99.90
19652;DHT22;9974;52.146;14.668;2023-07-29T07:10:03;22.30;99.90
19652;DHT22;9974;52.146;14.668;2023-07-29T07:12:29;21.50;99.90
19652;DHT22;9974;52.146;14.668;2023-07-29T07:17:21;21.90;99.90
19652;DHT22;9974;52.146;14.668;2023-07-29T07:19:46;22.00;99.90
19652;DHT22;9974;52.146;14.668;2023-07-29T07:22:12;22.20;99.90
19652;DHT22;9974;52.146;14.668;2023-07-29T07:24:38;23.00;99.90
19652;DHT22;9974;52.146;14.668;2023-07-29T07:27:04;22.00;99.90
19652;DHT22;9974;52.146;14.668;2023-07-29T07:31:56;22.40;99.90
19652;DHT22;9974;52.146;14.668;2023-07-29T07:34:22;22.60;99.90
19652;DHT22;9974;52.146;14.668;2023-07-29T07:36:48;22.20;99.90
19652;DHT22;9974;52.146;14.668;2023-07-29T07:39:14;22.90;99.90
19652;DHT22;9974;52.146;14.668;2023-07-29T07:41:40;22.50;99.90
19652;DHT22;9974;52.146;14.668;2023-07-29T07:44:07;23.30;99.90
19652;DHT22;9974;52.146;14.668;2023-07-29T07:46:32;23.00;99.90
19652;DHT22;9974;52.146;14.668;2023-07-29T07:48:58;23.10;99.90
19652;DHT22;9974;52.146;14.668;2023-07-29T07:51:24;22.50;99.90
19652;DHT22;9974;52.146;14.668;2023-07-29T07:53:50;23.10;99.90
19652;DHT22;9974;52.146;14.668;2023-07-29T07:58:41;23.00;99.90
19652;DHT22;9974;52.146;14.668;2023-07-29T08:01:09;23.00;99.90
19652;DHT22;9974;52.146;14.668;2023-07-29T08:06:01;23.10;99.90
19652;DHT22;9974;52.146;14.668;2023-07-29T08:08:28;23.30;99.90
19652;DHT22;9974;52.146;14.668;2023-07-29T08:10:54;23.70;99.90
19652;DHT22;9974;52.146;14.668;2023-07-29T08:13:23;23.70;99.90
19652;DHT22;9974;52.146;14.668;2023-07-29T08:15:50;23.90;99.90
19652;DHT22;9974;52.146;14.668;2023-07-29T08:18:16;23.70;99.90
19652;DHT22;9974;52.146;14.668;2023-07-29T08:20:59;24.10;99.90
19652;DHT22;9974;52.146;14.668;2023-07-29T08:23:30;23.90;99.90
19652;DHT22;9974;52.146;14.668;2023-07-29T08:25:57;24.20;99.90
19652;DHT22;9974;52.146;14.668;2023-07-29T08:28:33;24.10;99.90
19652;DHT22;9974;52.146;14.668;2023-07-29T08:31:02;23.80;99.90
19652;DHT22;9974;52.146;14.668;2023-07-29T08:33:29;23.60;99.90
19652;DHT22;9974;52.146;14.668;2023-07-29T08:35:55;23.80;99.90
19652;DHT22;9974;52.146;14.668;2023-07-29T08:38:21;23.90;99.90
19652;DHT22;9974;52.146;14.668;2023-07-29T08:44:09;24.30;99.90
19652;DHT22;9974;52.146;14.668;2023-07-29T08:46:38;24.50;99.90
19652;DHT22;9974;52.146;14.668;2023-07-29T08:49:05;24.50;99.90
19652;DHT22;9974;52.146;14.668;2023-07-29T08:51:31;24.70;99.90
19652;DHT22;9974;52.146;14.668;2023-07-29T08:53:58;24.40;99.90
19652;DHT22;9974;52.146;14.668;2023-07-29T08:56:24;24.70;99.90
19652;DHT22;9974;52.146;14.668;2023-07-29T08:58:51;24.60;99.90
19652;DHT22;9974;52.146;14.668;2023-07-29T09:01:17;25.10;99.90
19652;DHT22;9974;52.146;14.668;2023-07-29T09:08:36;24.60;99.90
19652;DHT22;9974;52.146;14.668;2023-07-29T09:11:02;24.70;99.90
19652;DHT22;9974;52.146;14.668;2023-07-29T09:13:28;24.70;99.90
19652;DHT22;9974;52.146;14.668;2023-07-29T09:15:55;24.50;99.90
19652;DHT22;9974;52.146;14.668;2023-07-29T09:18:21;24.30;99.90
19652;DHT22;9974;52.146;14.668;2023-07-29T09:20:49;24.50;99.90
19652;DHT22;9974;52.146;14.668;2023-07-29T09:23:15;24.40;99.90
19652;DHT22;9974;52.146;14.668;2023-07-29T09:25:41;24.80;99.90
19652;DHT22;9974;52.146;14.668;2023-07-29T09:28:12;24.50;99.90
19652;DHT22;9974;52.146;14.668;2023-07-29T09:30:45;24.70;99.90
19652;DHT22;9974;52.146;14.668;2023-07-29T09:33:12;24.40;99.90
19652;DHT22;9974;52.146;14.668;2023-07-29T09:35:38;24.30;99.90
19652;DHT22;9974;52.146;14.668;2023-07-29T09:38:07;24.40;99.90
19652;DHT22;9974;52.146;14.668;2023-07-29T09:40:39;24.30;99.90
19652;DHT22;9974;52.146;14.668;2023-07-29T09:43:07;24.30;99.90
19652;DHT22;9974;52.146;14.668;2023-07-29T09:45:36;24.30;99.90
19652;DHT22;9974;52.146;14.668;2023-07-29T09:48:03;24.30;99.90
19652;DHT22;9974;52.146;14.668;2023-07-29T09:50:34;24.50;99.90
19652;DHT22;9974;52.146;14.668;2023-07-29T09:53:02;24.30;99.90
19652;DHT22;9974;52.146;14.668;2023-07-29T09:55:28;24.20;99.90
19652;DHT22;9974;52.146;14.668;2023-07-29T09:58:01;24.20;99.90
19652;DHT22;9974;52.146;14.668;2023-07-29T10:00:30;24.00;99.90
19652;DHT22;9974;52.146;14.668;2023-07-29T10:02:57;24.60;99.90
19652;DHT22;9974;52.146;14.668;2023-07-29T10:05:26;24.30;99.90
19652;DHT22;9974;52.146;14.668;2023-07-29T10:07:53;25.00;99.90
19652;DHT22;9974;52.146;14.668;2023-07-29T10:12:46;25.20;99.90
19652;DHT22;9974;52.146;14.668;2023-07-29T10:15:12;25.40;99.90
19652;DHT22;9974;52.146;14.668;2023-07-29T10:17:39;25.60;99.90
19652;DHT22;9974;52.146;14.668;2023-07-29T10:20:07;25.40;99.90
19652;DHT22;9974;52.146;14.668;2023-07-29T10:22:37;25.50;99.90
19652;DHT22;9974;52.146;14.668;2023-07-29T10:25:16;25.70;99.90
19652;DHT22;9974;52.146;14.668;2023-07-29T10:30:12;26.10;99.90
19652;DHT22;9974;52.146;14.668;2023-07-29T10:32:39;26.10;99.90
19652;DHT22;9974;52.146;14.668;2023-07-29T10:35:08;26.40;99.90
19652;DHT22;9974;52.146;14.668;2023-07-29T10:37:34;26.60;99.90
19652;DHT22;9974;52.146;14.668;2023-07-29T10:40:00;26.30;99.90
19652;DHT22;9974;52.146;14.668;2023-07-29T10:42:25;26.30;99.90
19652;DHT22;9974;52.146;14.668;2023-07-29T10:44:54;26.30;99.90
19652;DHT22;9974;52.146;14.668;2023-07-29T10:47:26;26.30;99.90
19652;DHT22;9974;52.146;14.668;2023-07-29T10:49:57;26.40;99.90
19652;DHT22;9974;52.146;14.668;2023-07-29T10:55:03;26.50;99.90
19652;DHT22;9974;52.146;14.668;2023-07-29T10:57:33;27.20;99.90
19652;DHT22;9974;52.146;14.668;2023-07-29T11:00:00;26.80;99.90
19652;DHT22;9974;52.146;14.668;2023-07-29T11:02:30;26.90;99.90
19652;DHT22;9974;52.146;14.668;2023-07-29T11:05:06;27.10;99.90
19652;DHT22;9974;52.146;14.668;2023-07-29T11:07:47;27.10;99.90
19652;DHT22;9974;52.146;14.668;2023-07-29T11:10:14;27.40;99.90
19652;DHT22;9974;52.146;14.668;2023-07-29T11:12:48;26.70;99.90
19652;DHT22;9974;52.146;14.668;2023-07-29T11:15:24;26.70;99.90
19652;DHT22;9974;52.146;14.668;2023-07-29T11:17:56;26.60;99.90
19652;DHT22;9974;52.146;14.668;2023-07-29T11:20:25;26.60;99.90
19652;DHT22;9974;52.146;14.668;2023-07-29T11:22:56;26.60;99.90
19652;DHT22;9974;52.146;14.668;2023-07-29T11:25:26;26.80;99.90
19652;DHT22;9974;52.146;14.668;2023-07-29T11:27:55;26.50;99.90
19652;DHT22;9974;52.146;14.668;2023-07-29T11:30:21;26.30;99.90
19652;DHT22;9974;52.146;14.668;2023-07-29T11:32:48;26.70;99.90
19652;DHT22;9974;52.146;14.668;2023-07-29T11:35:18;26.70;99.90
19652;DHT22;9974;52.146;14.668;2023-07-29T11:37:46;26.90;99.90
19652;DHT22;9974;52.146;14.668;2023-07-29T11:40:22;26.80;99.90
19652;DHT22;9974;52.146;14.668;2023-07-29T11:42:50;25.60;99.90
19652;DHT22;9974;52.146;14.668;2023-07-29T11:45:17;26.20;99.90
19652;DHT22;9974;52.146;14.668;2023-07-29T11:47:43;26.70;99.90
19652;DHT22;9974;52.146;14.668;2023-07-29T11:50:12;26.70;99.90
19652;DHT22;9974;52.146;14.668;2023-07-29T11:52:45;26.60;99.90
19652;DHT22;9974;52.146;14.668;2023-07-29T11:55:12;26.40;99.90
19652;DHT22;9974;52.146;14.668;2023-07-29T11:57:40;26.60;99.90
19652;DHT22;9974;52.146;14.668;2023-07-29T12:00:08;26.40;99.90
19652;DHT22;9974;52.146;14.668;2023-07-29T12:02:42;26.50;99.90
19652;DHT22;9974;52.146;14.668;2023-07-29T12:05:13;26.30;99.90
19652;DHT22;9974;52.146;14.668;2023-07-29T12:07:39;26.50;99.90
19652;DHT22;9974;52.146;14.668;2023-07-29T12:10:07;26.90;99.90
19652;DHT22;9974;52.146;14.668;2023-07-29T12:12:32;26.50;99.90
19652;DHT22;9974;52.146;14.668;2023-07-29T12:17:24;26.20;99.90
19652;DHT22;9974;52.146;14.668;2023-07-29T12:19:54;26.40;99.90
19652;DHT22;9974;52.146;14.668;2023-07-29T12:22:20;26.30;99.90
19652;DHT22;9974;52.146;14.668;2023-07-29T12:24:46;26.50;99.90
19652;DHT22;9974;52.146;14.668;2023-07-29T12:27:12;27.20;99.90
19652;DHT22;9974;52.146;14.668;2023-07-29T12:29:43;27.00;99.90
19652;DHT22;9974;52.146;14.668;2023-07-29T12:32:09;26.70;99.90
19652;DHT22;9974;52.146;14.668;2023-07-29T12:34:37;26.60;99.90
19652;DHT22;9974;52.146;14.668;2023-07-29T12:37:05;26.70;99.90
19652;DHT22;9974;52.146;14.668;2023-07-29T12:39:33;26.50;99.90
19652;DHT22;9974;52.146;14.668;2023-07-29T12:42:01;26.60;99.90
19652;DHT22;9974;52.146;14.668;2023-07-29T12:44:32;27.20;99.90
19652;DHT22;9974;52.146;14.668;2023-07-29T12:47:04;27.70;99.90
19652;DHT22;9974;52.146;14.668;2023-07-29T12:49:31;27.00;99.90
19652;DHT22;9974;52.146;14.668;2023-07-29T12:51:57;27.20;99.90
19652;DHT22;9974;52.146;14.668;2023-07-29T12:54:23;27.30;99.90
19652;DHT22;9974;52.146;14.668;2023-07-29T12:56:49;27.50;99.90
19652;DHT22;9974;52.146;14.668;2023-07-29T12:59:15;27.10;99.90
19652;DHT22;9974;52.146;14.668;2023-07-29T13:01:40;27.20;99.90
19652;DHT22;9974;52.146;14.668;2023-07-29T13:04:06;27.10;99.90
19652;DHT22;9974;52.146;14.668;2023-07-29T13:06:32;27.30;99.90
19652;DHT22;9974;52.146;14.668;2023-07-29T13:11:23;27.10;99.90
19652;DHT22;9974;52.146;14.668;2023-07-29T13:13:49;27.30;99.90
19652;DHT22;9974;52.146;14.668;2023-07-29T13:16:15;27.10;99.90
19652;DHT22;9974;52.146;14.668;2023-07-29T13:18:41;26.30;99.90
19652;DHT22;9974;52.146;14.668;2023-07-29T13:21:08;26.00;99.90
19652;DHT22;9974;52.146;14.668;2023-07-29T13:23:34;26.30;99.90
19652;DHT22;9974;52.146;14.668;2023-07-29T13:26:00;26.80;99.90
19652;DHT22;9974;52.146;14.668;2023-07-29T13:28:26;26.60;99.90
19652;DHT22;9974;52.146;14.668;2023-07-29T13:30:51;26.50;99.90
19652;DHT22;9974;52.146;14.668;2023-07-29T13:33:17;27.20;99.90
19652;DHT22;9974;52.146;14.668;2023-07-29T13:40:36;24.80;99.90
19652;DHT22;9974;52.146;14.668;2023-07-29T13:43:02;23.40;99.90
19652;DHT22;9974;52.146;14.668;2023-07-29T13:45:27;22.80;99.90
19652;DHT22;9974;52.146;14.668;2023-07-29T13:47:53;21.50;99.90
19652;DHT22;9974;52.146;14.668;2023-07-29T13:52:44;20.50;99.90
19652;DHT22;9974;52.146;14.668;2023-07-29T13:55:10;20.40;99.90
19652;DHT22;9974;52.146;14.668;2023-07-29T13:57:37;20.20;99.90
19652;DHT22;9974;52.146;14.668;2023-07-29T14:00:04;20.50;99.90
19652;DHT22;9974;52.146;14.668;2023-07-29T14:02:30;20.70;99.90
19652;DHT22;9974;52.146;14.668;2023-07-29T14:04:56;20.00;99.90
19652;DHT22;9974;52.146;14.668;2023-07-29T14:12:15;19.70;99.90
19652;DHT22;9974;52.146;14.668;2023-07-29T14:14:44;19.60;99.90
19652;DHT22;9974;52.146;14.668;2023-07-29T14:17:09;19.40;99.90
19652;DHT22;9974;52.146;14.668;2023-07-29T14:19:36;19.40;99.90
19652;DHT22;9974;52.146;14.668;2023-07-29T14:22:02;19.30;99.90
19652;DHT22;9974;52.146;14.668;2023-07-29T14:24:28;19.50;99.90
19652;DHT22;9974;52.146;14.668;2023-07-29T14:26:53;19.40;99.90
19652;DHT22;9974;52.146;14.668;2023-07-29T14:29:19;19.70;99.90
19652;DHT22;9974;52.146;14.668;2023-07-29T14:34:11;19.10;99.90
19652;DHT22;9974;52.146;14.668;2023-07-29T14:36:36;19.20;99.90
19652;DHT22;9974;52.146;14.668;2023-07-29T14:39:02;19.80;99.90
19652;DHT22;9974;52.146;14.668;2023-07-29T14:41:30;19.20;99.90
19652;DHT22;9974;52.146;14.668;2023-07-29T14:43:56;19.70;99.90
19652;DHT22;9974;52.146;14.668;2023-07-29T14:48:47;19.70;99.90
19652;DHT22;9974;52.146;14.668;2023-07-29T14:53:39;19.50;99.90
19652;DHT22;9974;52.146;14.668;2023-07-29T14:56:05;19.60;99.90
19652;DHT22;9974;52.146;14.668;2023-07-29T14:58:31;19.50;99.90
19652;DHT22;9974;52.146;14.668;2023-07-29T15:00:56;20.00;99.90
19652;DHT22;9974;52.146;14.668;2023-07-29T15:03:23;20.00;99.90
19652;DHT22;9974;52.146;14.668;2023-07-29T15:05:49;19.40;99.90
19652;DHT22;9974;52.146;14.668;2023-07-29T15:08:15;19.80;99.90
19652;DHT22;9974;52.146;14.668;2023-07-29T15:10:40;19.40;99.90
19652;DHT22;9974;52.146;14.668;2023-07-29T15:13:10;19.50;99.90
19652;DHT22;9974;52.146;14.668;2023-07-29T15:15:35;19.70;99.90
19652;DHT22;9974;52.146;14.668;2023-07-29T15:20:27;19.20;99.90
19652;DHT22;9974;52.146;14.668;2023-07-29T15:22:53;19.20;99.90
19652;DHT22;9974;52.146;14.668;2023-07-29T15:27:44;18.80;99.90
19652;DHT22;9974;52.146;14.668;2023-07-29T15:30:10;19.00;99.90
19652;DHT22;9974;52.146;14.668;2023-07-29T15:32:37;19.10;99.90
19652;DHT22;9974;52.146;14.668;2023-07-29T15:35:03;19.20;99.90
19652;DHT22;9974;52.146;14.668;2023-07-29T15:37:29;19.10;99.90
19652;DHT22;9974;52.146;14.668;2023-07-29T15:42:21;19.70;99.90
19652;DHT22;9974;52.146;14.668;2023-07-29T15:47:12;19.50;99.90
19652;DHT22;9974;52.146;14.668;2023-07-29T15:49:41;19.50;99.90
19652;DHT22;9974;52.146;14.668;2023-07-29T15:52:07;19.60;99.90
19652;DHT22;9974;52.146;14.668;2023-07-29T15:54:34;19.70;99.90
19652;DHT22;9974;52.146;14.668;2023-07-29T15:56:59;20.90;99.90
19652;DHT22;9974;52.146;14.668;2023-07-29T16:01:51;20.00;99.90
19652;DHT22;9974;52.146;14.668;2023-07-29T16:04:17;20.10;99.90
19652;DHT22;9974;52.146;14.668;2023-07-29T16:06:42;20.50;99.90
19652;DHT22;9974;52.146;14.668;2023-07-29T16:11:34;20.50;99.90
19652;DHT22;9974;52.146;14.668;2023-07-29T16:14:00;20.60;99.90
19652;DHT22;9974;52.146;14.668;2023-07-29T16:16:27;20.70;99.90
19652;DHT22;9974;52.146;14.668;2023-07-29T16:18:53;20.60;99.90
19652;DHT22;9974;52.146;14.668;2023-07-29T16:26:11;20.50;99.90
19652;DHT22;9974;52.146;14.668;2023-07-29T16:28:37;20.40;99.90
19652;DHT22;9974;52.146;14.668;2023-07-29T16:33:30;20.40;99.90
19652;DHT22;9974;52.146;14.668;2023-07-29T16:38:22;20.20;99.90
19652;DHT22;9974;52.146;14.668;2023-07-29T16:43:14;20.40;99.90
19652;DHT22;9974;52.146;14.668;2023-07-29T16:48:05;20.00;99.90
19652;DHT22;9974;52.146;14.668;2023-07-29T16:50:31;19.90;99.90
19652;DHT22;9974;52.146;14.668;2023-07-29T16:55:24;20.20;99.90
19652;DHT22;9974;52.146;14.668;2023-07-29T17:00:15;20.20;99.90
19652;DHT22;9974;52.146;14.668;2023-07-29T17:05:07;20.00;99.90
19652;DHT22;9974;52.146;14.668;2023-07-29T17:07:33;20.90;99.90
19652;DHT22;9974;52.146;14.668;2023-07-29T17:10:00;20.30;99.90
19652;DHT22;9974;52.146;14.668;2023-07-29T17:12:26;20.00;99.90
19652;DHT22;9974;52.146;14.668;2023-07-29T17:14:51;19.90;99.90
19652;DHT22;9974;52.146;14.668;2023-07-29T17:17:17;20.60;99.90
19652;DHT22;9974;52.146;14.668;2023-07-29T17:19:43;20.60;99.90
19652;DHT22;9974;52.146;14.668;2023-07-29T17:22:10;19.90;99.90
19652;DHT22;9974;52.146;14.668;2023-07-29T17:24:35;20.50;99.90
19652;DHT22;9974;52.146;14.668;2023-07-29T17:27:01;20.20;99.90
19652;DHT22;9974;52.146;14.668;2023-07-29T17:29:26;20.70;99.90
19652;DHT22;9974;52.146;14.668;2023-07-29T17:31:52;20.70;99.90
19652;DHT22;9974;52.146;14.668;2023-07-29T17:34:18;20.50;99.90
19652;DHT22;9974;52.146;14.668;2023-07-29T17:36:43;20.50;99.90
19652;DHT22;9974;52.146;14.668;2023-07-29T17:39:09;20.70;99.90
19652;DHT22;9974;52.146;14.668;2023-07-29T17:44:01;20.60;99.90
19652;DHT22;9974;52.146;14.668;2023-07-29T17:46:26;20.50;99.90
19652;DHT22;9974;52.146;14.668;2023-07-29T17:51:18;20.20;99.90
19652;DHT22;9974;52.146;14.668;2023-07-29T17:53:44;19.80;99.90
19652;DHT22;9974;52.146;14.668;2023-07-29T17:56:09;20.30;99.90
19652;DHT22;9974;52.146;14.668;2023-07-29T17:58:36;20.00;99.90
19652;DHT22;9974;52.146;14.668;2023-07-29T18:01:02;20.30;99.90